WHISKEYTOWN DAM (USBR) (WHI)

Elevation: 1210' · SACRAMENTO R basin · Operator: US Bureau of Reclamation

Provisional data, subject to change.
Query executed Wednesday at 3:01:47   clock

Select a sensor type for a plot of data.
Note: Reservoir Flows are daily averages.

Earlier

Date RES ELE    STORAGE    RES CHG    OUTFLOW    INFLOW    EVAP    RIV REL    PPT INC    RAIN    SPILL    DIS PWR   
 FEET   AF   AF   CFS   CFS   CFS   CFS   INCHES   INCHES   CFS   CFS  
10/14/2012 1202.53 217747 -1185 1195 599 1 223 0.00 0.00 0 972
10/15/2012 1202.11 216470 -1277 1201 559 2 223 0.00 0.00 0 978
10/16/2012 1201.70 215231 -1239 1186 565 4 223 0.00 0.00 0 963
10/17/2012 1201.41 214356 -875 971 536 6 223 0.00 0.00 0 748
10/18/2012 1201.13 213511 -845 958 537 5 222 0.00 0.00 0 736
10/19/2012 1200.85 212670 -841 933 513 4 222 0.00 0.00 0 711
10/20/2012 1200.71 212251 -419 791 580 0 222 0.00 0.00 0 569
10/21/2012 1200.44 211442 -809 866 471 13 222 0.00 0.00 0 644
10/22/2012 1200.14 210544 -898 1066 613 0 222 0.63 0.63 0 844
10/23/2012 1199.87 209739 -805 1037 631 0 222 0.03 0.66 0 815
10/24/2012 1199.42 208402 -1337 1251 577 0 222 0.50 1.16 0 1029
10/25/2012 1198.88 206801 -1601 1373 566 0 222 0.06 1.22 0 1151
10/26/2012 1198.64 206094 -707 909 557 4 222 0.00 1.22 0 687
10/27/2012 1198.40 205387 -707 866 515 5 222 0.01 1.23 0 644
10/28/2012 1198.25 204946 -441 827 607 2 222 0.00 1.23 0 605
10/29/2012 1198.14 204621 -325 785 624 3 222 0.00 1.23 0 563
10/30/2012 1198.20 204798 177 482 575 4 222 0.00 1.23 0 260
10/31/2012 1198.27 205004 206 501 609 4 223 0.00 1.23 0 278
11/01/2012 1198.24 204916 -88 608 564 0 223 0.71 1.94 0 385
11/02/2012 1198.18 204739 -177 714 625 0 230 0.00 1.94 0 484
11/03/2012 1198.14 204621 -118 638 579 0 226 0.02 1.96 0 412
11/04/2012 1198.06 204386 -235 684 566 0 235 0.00 1.96 0 449
11/05/2012 1198.28 205034 648 308 637 2 227 0.00 1.96 0 81
11/06/2012 1198.07 204415 -- 289 -20 3 227 0.00 1.96 0 62
11/07/2012 1197.99 204180 -235 267 152 3 227 0.00 1.96 0 40
11/08/2012 1198.25 204946 766 266 657 5 227 0.00 1.96 0 39
11/09/2012 1198.46 205564 618 265 578 1 226 0.03 1.99 0 39
11/10/2012 1198.30 205093 -471 265 29 1 227 0.00 r 1.99 0 38
11/11/2012 1198.13 204592 -501 265 15 3 227 0.00 1.99 0 38
11/12/2012 1198.12 204563 -29 265 253 3 227 0.00 1.99 0 38
11/13/2012 1198.17 204710 147 265 342 3 227 0.00 1.99 0 38
11/14/2012 1198.18 204739 29 265 283 3 227 0.00 1.99 0 38

Later | Latest

Warning! This data is preliminary and subject to revision.

Download Data Now Download Data Now | Show WHI Map | Plot WHI Data | 1 Month WHI Data | Real-Time WHI Data | WHI Info